createdAt,value
2016-08-16T00:00:14.191Z,99.99
2016-08-16T00:01:14.212Z,99.99
2016-08-16T00:02:13.531Z,99.99
2016-08-16T00:03:13.683Z,99.99
2016-08-16T00:04:13.574Z,99.99
2016-08-16T00:05:13.584Z,99.99
2016-08-16T00:06:13.601Z,99.99
2016-08-16T00:07:14.331Z,99.99
2016-08-16T00:08:13.643Z,99.99
2016-08-16T00:09:14.379Z,99.99
2016-08-16T00:10:14.396Z,99.99
2016-08-16T00:11:14.422Z,99.99
2016-08-16T00:12:13.732Z,99.99
2016-08-16T00:13:14.444Z,99.99
2016-08-16T00:14:13.773Z,99.99
2016-08-16T00:15:13.792Z,99.99
2016-08-16T00:16:14.573Z,99.99
2016-08-16T00:17:14.541Z,99.99
2016-08-16T00:18:13.946Z,99.99
2016-08-16T00:19:14.562Z,99.99
2016-08-16T00:20:14.641Z,99.99
2016-08-16T00:21:14.605Z,99.99
2016-08-16T00:22:13.920Z,99.99
2016-08-16T00:23:14.645Z,99.99
2016-08-16T00:24:13.964Z,99.99
2016-08-16T00:25:13.983Z,99.99
2016-08-16T00:26:14.759Z,99.99
2016-08-16T00:27:14.724Z,99.99
2016-08-16T00:28:14.737Z,99.99
2016-08-16T00:29:14.760Z,99.99
2016-08-16T00:30:14.783Z,99.99
2016-08-16T00:31:14.092Z,99.99
2016-08-16T00:32:14.129Z,99.99
2016-08-16T00:33:14.834Z,99.99
2016-08-16T00:34:14.153Z,99.99
2016-08-16T00:35:14.879Z,99.99
2016-08-16T00:36:14.902Z,99.99
2016-08-16T00:37:14.923Z,99.99
2016-08-16T00:38:14.942Z,99.99
2016-08-16T00:39:14.254Z,99.99
2016-08-16T00:40:14.264Z,99.99
2016-08-16T00:41:14.284Z,99.99
2016-08-16T00:42:15.004Z,99.99
2016-08-16T00:43:15.043Z,99.99
2016-08-16T00:44:15.059Z,99.99
2016-08-16T00:45:15.073Z,99.99
2016-08-16T00:46:14.371Z,99.99
2016-08-16T00:47:14.401Z,99.99
2016-08-16T00:48:14.419Z,99.99
2016-08-16T00:49:14.436Z,99.99
2016-08-16T00:50:15.161Z,99.99
2016-08-16T00:51:14.471Z,99.99
2016-08-16T00:52:14.501Z,99.99
2016-08-16T00:53:14.522Z,99.99
2016-08-16T00:54:14.531Z,99.99
2016-08-16T00:55:15.254Z,99.99
2016-08-16T00:56:14.572Z,99.99
2016-08-16T00:57:15.301Z,99.99
2016-08-16T00:58:14.605Z,99.99
2016-08-16T00:59:15.383Z,99.99
2016-08-16T01:00:15.360Z,99.99
2016-08-16T01:01:14.673Z,99.99
2016-08-16T01:02:14.691Z,99.99
2016-08-16T01:03:14.718Z,99.99
2016-08-16T01:04:14.730Z,99.99
2016-08-16T01:05:14.746Z,99.99
2016-08-16T01:06:15.470Z,99.99
2016-08-16T01:07:14.793Z,99.99
2016-08-16T01:08:15.508Z,99.99
2016-08-16T01:09:14.821Z,99.99
2016-08-16T01:10:15.545Z,99.99
2016-08-16T01:11:14.854Z,99.99
2016-08-16T01:12:15.597Z,99.99
2016-08-16T01:13:14.902Z,99.99
2016-08-16T01:14:15.638Z,99.99
2016-08-16T01:15:14.931Z,99.99
2016-08-16T01:16:14.962Z,99.99
2016-08-16T01:17:15.677Z,99.99
2016-08-16T01:18:15.001Z,99.99
2016-08-16T01:19:15.018Z,99.99
2016-08-16T01:20:15.741Z,99.99
2016-08-16T01:21:15.090Z,99.99
2016-08-16T01:22:15.772Z,99.99
2016-08-16T01:23:15.823Z,99.99
2016-08-16T01:24:16.432Z,99.99
2016-08-16T01:25:15.133Z,99.99
2016-08-16T01:26:15.160Z,99.99
2016-08-16T01:27:15.860Z,99.99
2016-08-16T01:28:15.900Z,99.99
2016-08-16T01:29:15.902Z,99.99
2016-08-16T01:30:15.942Z,99.99
2016-08-16T01:31:15.231Z,99.99
2016-08-16T01:32:16.064Z,99.99
2016-08-16T01:33:15.982Z,99.99
2016-08-16T01:34:15.355Z,99.99
2016-08-16T01:35:15.321Z,99.99
2016-08-16T01:36:15.387Z,99.99
2016-08-16T01:37:15.363Z,99.99
2016-08-16T01:38:16.080Z,99.99
2016-08-16T01:39:16.090Z,99.99
2016-08-16T01:40:15.411Z,99.99
2016-08-16T01:41:15.442Z,99.99
2016-08-16T01:42:16.169Z,99.99
2016-08-16T01:43:16.172Z,99.99
2016-08-16T01:44:16.191Z,99.99
2016-08-16T01:45:15.537Z,99.99
2016-08-16T01:46:15.521Z,99.99
2016-08-16T01:47:15.548Z,99.99
2016-08-16T01:48:15.571Z,99.99
2016-08-16T01:49:16.288Z,99.99
2016-08-16T01:50:16.312Z,99.99
2016-08-16T01:51:15.626Z,99.99
2016-08-16T01:52:15.643Z,99.99
2016-08-16T01:53:15.703Z,99.99
2016-08-16T01:54:15.688Z,99.99
2016-08-16T01:55:15.703Z,99.99
2016-08-16T01:56:16.418Z,99.99
2016-08-16T01:57:15.742Z,99.99
2016-08-16T01:58:16.590Z,99.99
2016-08-16T01:59:15.772Z,99.99
2016-08-16T02:00:16.202Z,99.99
2016-08-16T02:01:16.520Z,99.99
2016-08-16T02:02:15.914Z,99.99
2016-08-16T02:03:15.853Z,99.99
2016-08-16T02:04:16.573Z,99.99
2016-08-16T02:05:16.593Z,99.99
2016-08-16T02:06:15.918Z,99.99
2016-08-16T02:07:15.922Z,99.99
2016-08-16T02:08:16.651Z,99.99
2016-08-16T02:09:15.973Z,99.99
2016-08-16T02:10:16.682Z,99.99
2016-08-16T02:11:16.002Z,99.99
2016-08-16T02:12:16.033Z,99.99
2016-08-16T02:13:16.741Z,99.99
2016-08-16T02:14:16.051Z,99.99
2016-08-16T02:15:16.070Z,99.99
2016-08-16T02:16:16.171Z,99.99
2016-08-16T02:17:16.125Z,99.99
2016-08-16T02:18:16.137Z,99.99
2016-08-16T02:19:16.873Z,99.99
2016-08-16T02:20:16.183Z,99.99
2016-08-16T02:21:17.326Z,99.99
2016-08-16T02:22:16.909Z,99.99
2016-08-16T02:23:16.247Z,99.99
2016-08-16T02:24:16.250Z,99.99
2016-08-16T02:25:16.972Z,99.99
2016-08-16T02:26:17.041Z,99.99
2016-08-16T02:27:17.024Z,99.99
2016-08-16T02:28:16.330Z,99.99
2016-08-16T02:29:17.051Z,99.99
2016-08-16T02:30:16.358Z,99.99
2016-08-16T02:31:16.381Z,99.99
2016-08-16T02:32:16.397Z,99.99
2016-08-16T02:33:17.123Z,99.99
2016-08-16T02:34:16.443Z,99.99
2016-08-16T02:35:17.170Z,99.99
2016-08-16T02:36:16.471Z,99.99
2016-08-16T02:37:17.198Z,99.99
2016-08-16T02:38:16.500Z,99.99
2016-08-16T02:39:16.530Z,99.99
2016-08-16T02:40:17.451Z,99.99
2016-08-16T02:41:17.281Z,99.99
2016-08-16T02:42:17.297Z,99.99
2016-08-16T02:43:17.320Z,99.99
2016-08-16T02:44:17.341Z,99.99
2016-08-16T02:45:17.341Z,99.99
2016-08-16T02:46:16.664Z,99.99
2016-08-16T02:47:16.697Z,99.99
2016-08-16T02:48:16.711Z,99.99
2016-08-16T02:49:17.423Z,99.99
2016-08-16T02:50:17.443Z,99.99
2016-08-16T02:51:16.757Z,99.99
2016-08-16T02:52:17.482Z,99.99
2016-08-16T02:53:17.500Z,99.99
2016-08-16T02:54:16.820Z,99.99
2016-08-16T02:55:17.538Z,99.99
2016-08-16T02:56:16.851Z,99.99
2016-08-16T02:57:17.571Z,99.99
2016-08-16T02:58:17.592Z,99.99
2016-08-16T02:59:16.914Z,99.99
2016-08-16T03:00:16.922Z,99.99
2016-08-16T03:01:16.982Z,99.99
2016-08-16T03:02:17.685Z,99.99
2016-08-16T03:03:17.698Z,99.99
2016-08-16T03:04:17.710Z,99.99
2016-08-16T03:05:17.806Z,99.99
2016-08-16T03:06:17.753Z,99.99
2016-08-16T03:07:17.056Z,99.99
2016-08-16T03:08:17.089Z,99.99
2016-08-16T03:09:17.103Z,99.99
2016-08-16T03:10:17.833Z,99.99
2016-08-16T03:11:17.136Z,99.99
2016-08-16T03:12:17.850Z,99.99
2016-08-16T03:13:17.174Z,99.99
2016-08-16T03:14:18.033Z,99.99
2016-08-16T03:15:17.916Z,99.99
2016-08-16T03:16:17.589Z,99.99
2016-08-16T03:17:17.387Z,99.99
2016-08-16T03:18:17.581Z,99.99
2016-08-16T03:19:18.132Z,99.99
2016-08-16T03:20:18.261Z,99.99
2016-08-16T03:21:18.130Z,99.99
2016-08-16T03:22:18.188Z,99.99
2016-08-16T03:23:18.160Z,99.99
2016-08-16T03:24:17.432Z,99.99
2016-08-16T03:25:18.324Z,99.99
2016-08-16T03:26:18.222Z,99.99
2016-08-16T03:27:17.431Z,99.99
2016-08-16T03:28:18.160Z,99.99
2016-08-16T03:29:18.322Z,99.99
2016-08-16T03:30:18.195Z,99.99
2016-08-16T03:31:17.651Z,99.99
2016-08-16T03:32:17.533Z,99.99
2016-08-16T03:33:17.688Z,99.99
2016-08-16T03:34:17.561Z,99.99
2016-08-16T03:35:18.386Z,99.99
2016-08-16T03:36:18.313Z,99.99
2016-08-16T03:37:17.667Z,99.99
2016-08-16T03:38:18.353Z,99.99
2016-08-16T03:39:17.662Z,99.99
2016-08-16T03:40:17.681Z,99.99
2016-08-16T03:41:18.395Z,99.99
2016-08-16T03:42:17.797Z,99.99
2016-08-16T03:43:17.734Z,99.99
2016-08-16T03:44:17.803Z,99.99
2016-08-16T03:45:18.462Z,99.99
2016-08-16T03:46:18.486Z,99.99
2016-08-16T03:47:18.508Z,99.99
2016-08-16T03:48:17.820Z,99.99
2016-08-16T03:49:17.843Z,99.99
2016-08-16T03:50:17.864Z,99.99
2016-08-16T03:51:18.573Z,99.99
2016-08-16T03:52:18.590Z,99.99
2016-08-16T03:53:18.618Z,99.99
2016-08-16T03:54:18.639Z,99.99
2016-08-16T03:55:18.664Z,99.99
2016-08-16T03:56:18.685Z,99.99
2016-08-16T03:57:18.720Z,99.99
2016-08-16T03:58:18.712Z,99.99
2016-08-16T03:59:18.032Z,99.99
2016-08-16T04:00:18.743Z,99.99
2016-08-16T04:01:18.761Z,99.99
2016-08-16T04:02:18.769Z,99.99
2016-08-16T04:03:18.101Z,99.99
2016-08-16T04:04:18.825Z,99.99
2016-08-16T04:05:18.842Z,99.99
2016-08-16T04:06:18.148Z,99.99
2016-08-16T04:07:18.889Z,99.99
2016-08-16T04:08:18.890Z,99.99
2016-08-16T04:09:18.202Z,99.99
2016-08-16T04:10:18.235Z,99.99
2016-08-16T04:11:18.253Z,99.99
2016-08-16T04:12:18.962Z,99.99
2016-08-16T04:13:19.003Z,99.99
2016-08-16T04:14:19.018Z,99.99
2016-08-16T04:15:19.028Z,99.99
2016-08-16T04:16:19.045Z,99.99
2016-08-16T04:17:18.590Z,99.99
2016-08-16T04:18:19.086Z,99.99
2016-08-16T04:19:18.392Z,99.99
2016-08-16T04:20:19.126Z,99.99
2016-08-16T04:21:19.145Z,99.99
2016-08-16T04:22:18.448Z,99.99
2016-08-16T04:23:18.469Z,99.99
2016-08-16T04:24:18.491Z,99.99
2016-08-16T04:25:19.252Z,99.99
2016-08-16T04:26:19.241Z,99.99
2016-08-16T04:27:19.246Z,99.99
2016-08-16T04:28:19.263Z,99.99
2016-08-16T04:29:19.292Z,99.99
2016-08-16T04:30:19.302Z,99.99
2016-08-16T04:31:19.322Z,99.99
2016-08-16T04:32:18.626Z,99.99
2016-08-16T04:33:19.360Z,99.99
2016-08-16T04:34:19.382Z,99.99
2016-08-16T04:35:18.688Z,99.99
2016-08-16T04:36:19.413Z,99.99
2016-08-16T04:37:19.439Z,99.99
2016-08-16T04:38:19.458Z,99.99
2016-08-16T04:39:19.474Z,99.99
2016-08-16T04:40:19.492Z,99.99
2016-08-16T04:41:19.512Z,99.99
2016-08-16T04:42:19.522Z,99.99
2016-08-16T04:43:18.832Z,99.99
2016-08-16T04:44:19.562Z,99.99
2016-08-16T04:45:19.579Z,99.99
2016-08-16T04:46:19.592Z,99.99
2016-08-16T04:47:19.610Z,99.99
2016-08-16T04:48:18.924Z,99.99
2016-08-16T04:49:19.676Z,99.99
2016-08-16T04:50:18.967Z,99.99
2016-08-16T04:51:19.701Z,99.99
2016-08-16T04:52:19.012Z,99.99
2016-08-16T04:53:19.030Z,99.99
2016-08-16T04:54:19.742Z,99.99
2016-08-16T04:55:19.061Z,99.99
2016-08-16T04:56:19.141Z,99.99
2016-08-16T04:57:19.807Z,99.99
2016-08-16T04:58:19.841Z,99.99
2016-08-16T04:59:19.851Z,99.99
2016-08-16T05:00:19.973Z,99.99
2016-08-16T05:01:19.881Z,99.99
2016-08-16T05:02:19.191Z,99.99
2016-08-16T05:03:19.932Z,99.99
2016-08-16T05:04:19.951Z,99.99
2016-08-16T05:05:19.262Z,99.99
2016-08-16T05:06:19.980Z,99.99
2016-08-16T05:07:20.001Z,99.99
2016-08-16T05:08:20.013Z,99.99
2016-08-16T05:09:20.259Z,99.99
2016-08-16T05:10:20.058Z,99.99
2016-08-16T05:11:20.201Z,99.99
2016-08-16T05:12:20.101Z,99.99
2016-08-16T05:13:20.120Z,99.99
2016-08-16T05:14:20.133Z,99.99
2016-08-16T05:15:19.494Z,99.99
2016-08-16T05:16:20.156Z,99.99
2016-08-16T05:17:20.192Z,99.99
2016-08-16T05:18:20.208Z,99.99
2016-08-16T05:19:20.244Z,99.99
2016-08-16T05:20:20.254Z,99.99
2016-08-16T05:21:19.572Z,99.99
2016-08-16T05:22:19.688Z,99.99
2016-08-16T05:23:20.559Z,99.99
2016-08-16T05:24:20.605Z,99.99
2016-08-16T05:25:20.657Z,99.99
2016-08-16T05:26:20.627Z,99.99
2016-08-16T05:27:21.651Z,99.99
2016-08-16T05:28:19.834Z,99.99
2016-08-16T05:29:20.601Z,99.99
2016-08-16T05:30:20.765Z,99.99
2016-08-16T05:31:21.218Z,99.99
2016-08-16T05:32:19.852Z,99.99
2016-08-16T05:33:20.946Z,99.99
2016-08-16T05:34:20.698Z,98.29
2016-08-16T05:35:20.168Z,94.68
2016-08-16T05:36:20.939Z,87.95
2016-08-16T05:37:21.012Z,81.16
2016-08-16T05:38:21.244Z,81.25
2016-08-16T05:39:20.754Z,80.71
2016-08-16T05:40:20.928Z,77.38
2016-08-16T05:41:20.816Z,72.44
2016-08-16T05:42:21.057Z,69.58
2016-08-16T05:43:20.927Z,67.36
2016-08-16T05:44:21.125Z,63.56
2016-08-16T05:45:21.264Z,62.27
2016-08-16T05:46:21.288Z,60.44
2016-08-16T05:47:21.002Z,59.23
2016-08-16T05:48:21.222Z,56.29
2016-08-16T05:49:21.241Z,54.7
2016-08-16T05:50:21.242Z,51.26
2016-08-16T05:51:21.383Z,50.04
2016-08-16T05:52:21.428Z,48.05
2016-08-16T05:53:21.526Z,48.34
2016-08-16T05:54:21.418Z,49.58
2016-08-16T05:55:21.046Z,48.03
2016-08-16T05:56:21.091Z,48.05
2016-08-16T05:57:21.099Z,47.78
2016-08-16T05:58:21.399Z,48.9
2016-08-16T05:59:21.664Z,50.89
2016-08-16T06:00:20.935Z,54.02
2016-08-16T06:01:21.813Z,55.81
2016-08-16T06:02:21.711Z,57.5
2016-08-16T06:03:21.642Z,58.72
2016-08-16T06:04:21.616Z,59.47
2016-08-16T06:05:21.554Z,60.24
2016-08-16T06:06:22.865Z,62.73
2016-08-16T06:07:21.803Z,64.69
2016-08-16T06:08:22.071Z,66.3
2016-08-16T06:09:21.494Z,67.52
2016-08-16T06:10:21.810Z,68.55
2016-08-16T06:11:21.826Z,71.76
2016-08-16T06:12:21.754Z,73.99
2016-08-16T06:13:22.018Z,74.19
2016-08-16T06:14:20.939Z,74.92
2016-08-16T06:15:22.111Z,75.31
2016-08-16T06:16:21.870Z,75.59
2016-08-16T06:17:22.226Z,75.31
2016-08-16T06:18:21.964Z,74.86
2016-08-16T06:19:21.358Z,74.96
2016-08-16T06:20:22.171Z,74.57
2016-08-16T06:21:22.214Z,74.96
2016-08-16T06:22:22.419Z,74.38
2016-08-16T06:23:21.231Z,75.79
2016-08-16T06:24:21.831Z,76.36
2016-08-16T06:25:21.945Z,76.84
2016-08-16T06:26:21.888Z,77.38
2016-08-16T06:27:21.898Z,77.67
2016-08-16T06:28:21.951Z,76.81
2016-08-16T06:29:21.259Z,76.61
2016-08-16T06:30:23.187Z,77.19
2016-08-16T06:31:22.003Z,77.19
2016-08-16T06:32:21.386Z,77.19
2016-08-16T06:33:22.060Z,78.83
2016-08-16T06:34:21.383Z,79.07
2016-08-16T06:35:22.108Z,79.84
2016-08-16T06:36:21.423Z,79.75
2016-08-16T06:37:21.445Z,79.07
2016-08-16T06:38:22.177Z,77.86
2016-08-16T06:39:21.510Z,76.07
2016-08-16T06:40:21.525Z,76.26
2016-08-16T06:41:21.658Z,75.79
2016-08-16T06:42:21.571Z,74.86
2016-08-16T06:43:22.350Z,73.32
2016-08-16T06:44:22.337Z,73.07
2016-08-16T06:45:22.366Z,72.59
2016-08-16T06:46:22.378Z,72.97
2016-08-16T06:47:21.706Z,72.49
2016-08-16T06:48:22.444Z,72.05
2016-08-16T06:49:22.460Z,71.85
2016-08-16T06:50:22.488Z,71.66
2016-08-16T06:51:22.520Z,71.12
2016-08-16T06:52:22.547Z,70.54
2016-08-16T06:53:22.570Z,70.35
2016-08-16T06:54:22.590Z,71.31
2016-08-16T06:55:21.908Z,71.02
2016-08-16T06:56:21.917Z,71.28
2016-08-16T06:57:22.659Z,70.25
2016-08-16T06:58:21.976Z,71.66
2016-08-16T06:59:22.709Z,72.88
2016-08-16T07:00:22.741Z,71.62
2016-08-16T07:01:22.790Z,71.28
2016-08-16T07:02:22.787Z,70.5
2016-08-16T07:03:22.819Z,68.74
2016-08-16T07:04:22.844Z,67.71
2016-08-16T07:05:22.985Z,66.59
2016-08-16T07:06:22.884Z,65.75
2016-08-16T07:07:22.917Z,64.21
2016-08-16T07:08:22.963Z,66.3
2016-08-16T07:09:22.973Z,66.01
2016-08-16T07:10:22.987Z,66.59
2016-08-16T07:11:22.309Z,67.14
2016-08-16T07:12:23.044Z,67.91
2016-08-16T07:13:23.072Z,68.49
2016-08-16T07:14:22.399Z,69.03
2016-08-16T07:15:22.420Z,69.03
2016-08-16T07:16:23.144Z,68.84
2016-08-16T07:17:23.188Z,69.13
2016-08-16T07:18:23.199Z,69.51
2016-08-16T07:19:23.237Z,68.9
2016-08-16T07:20:23.269Z,69.67
2016-08-16T07:21:23.280Z,69.77
2016-08-16T07:22:23.331Z,70.35
2016-08-16T07:23:23.338Z,70.41
2016-08-16T07:24:23.364Z,70.15
2016-08-16T07:25:23.382Z,69.87
2016-08-16T07:26:22.700Z,69.57
2016-08-16T07:27:23.439Z,69.23
2016-08-16T07:28:23.471Z,68.65
2016-08-16T07:29:23.550Z,68.39
2016-08-16T07:30:23.506Z,69.55
2016-08-16T07:31:23.540Z,69.13
2016-08-16T07:32:23.565Z,69.07
2016-08-16T07:33:22.961Z,69.61
2016-08-16T07:34:22.919Z,69.23
2016-08-16T07:35:22.941Z,68.68
2016-08-16T07:36:23.670Z,70
2016-08-16T07:37:23.692Z,68.39
2016-08-16T07:38:23.740Z,68.1
2016-08-16T07:39:23.031Z,68.19
2016-08-16T07:40:23.065Z,68.01
2016-08-16T07:41:23.813Z,66.88
2016-08-16T07:42:23.831Z,65.75
2016-08-16T07:43:23.860Z,64.72
2016-08-16T07:44:23.183Z,64.66
2016-08-16T07:45:23.942Z,64.37
2016-08-16T07:46:23.220Z,63.43
2016-08-16T07:47:23.951Z,63.37
2016-08-16T07:48:23.355Z,62.98
2016-08-16T07:49:23.314Z,59.43
2016-08-16T07:50:24.039Z,58.17
2016-08-16T07:51:24.081Z,58.04
2016-08-16T07:52:23.394Z,60.44
2016-08-16T07:53:23.402Z,60.31
2016-08-16T07:54:23.547Z,60.28
2016-08-16T07:55:23.473Z,61.18
2016-08-16T07:56:24.312Z,61.54
2016-08-16T07:57:24.235Z,61.12
2016-08-16T07:58:23.620Z,59.7
2016-08-16T07:59:24.293Z,60.47
2016-08-16T08:00:24.307Z,58.86
2016-08-16T08:01:24.331Z,59.05
2016-08-16T08:02:24.365Z,58.98
2016-08-16T08:03:24.385Z,60.11
2016-08-16T08:04:23.708Z,60.41
2016-08-16T08:05:24.439Z,60.79
2016-08-16T08:06:23.766Z,59.83
2016-08-16T08:07:23.803Z,60.11
2016-08-16T08:08:24.539Z,61.22
2016-08-16T08:09:24.639Z,62.86
2016-08-16T08:10:23.871Z,62.86
2016-08-16T08:11:24.604Z,62.86
2016-08-16T08:12:24.635Z,62.18
2016-08-16T08:13:23.958Z,61.54
2016-08-16T08:14:24.684Z,60.89
2016-08-16T08:15:24.731Z,61.15
2016-08-16T08:16:24.030Z,62.66
2016-08-16T08:17:24.765Z,63.79
2016-08-16T08:18:24.852Z,65.3
2016-08-16T08:19:24.104Z,66.52
2016-08-16T08:20:24.847Z,67.07
2016-08-16T08:21:24.172Z,68.04
2016-08-16T08:22:24.926Z,67.46
2016-08-16T08:23:24.924Z,66.88
2016-08-16T08:24:24.255Z,67.07
2016-08-16T08:25:24.991Z,66.82
2016-08-16T08:26:25.059Z,66.33
2016-08-16T08:27:25.035Z,66.43
2016-08-16T08:28:25.058Z,66.08
2016-08-16T08:29:25.092Z,64.86
2016-08-16T08:30:24.398Z,64.5
2016-08-16T08:31:24.433Z,62.7
2016-08-16T08:32:25.163Z,61.83
2016-08-16T08:33:24.484Z,62.15
2016-08-16T08:34:25.214Z,61.08
2016-08-16T08:35:25.245Z,58.02
2016-08-16T08:36:24.563Z,56.37
2016-08-16T08:37:24.593Z,57.7
2016-08-16T08:38:25.315Z,57.79
2016-08-16T08:39:25.348Z,57.48
2016-08-16T08:40:25.381Z,56.29
2016-08-16T08:41:25.411Z,57.1
2016-08-16T08:42:25.495Z,57.78
2016-08-16T08:43:25.473Z,58.33
2016-08-16T08:44:24.771Z,58.72
2016-08-16T08:45:25.506Z,59.94
2016-08-16T08:46:25.538Z,61
2016-08-16T08:47:25.562Z,61.38
2016-08-16T08:48:24.880Z,61
2016-08-16T08:49:25.613Z,63.38
2016-08-16T08:50:25.641Z,65.59
2016-08-16T08:51:25.685Z,70.5
2016-08-16T08:52:25.706Z,71.85
2016-08-16T08:53:25.827Z,71.22
2016-08-16T08:54:25.042Z,71.6
2016-08-16T08:55:25.065Z,71.73
2016-08-16T08:56:25.797Z,71.83
2016-08-16T08:57:25.110Z,71.34
2016-08-16T08:58:25.854Z,71.54
2016-08-16T08:59:25.892Z,70.48
2016-08-16T09:00:25.192Z,68.68
2016-08-16T09:01:25.225Z,66.94
2016-08-16T09:02:25.969Z,66.49
2016-08-16T09:03:25.269Z,66.11
2016-08-16T09:04:25.998Z,62.86
2016-08-16T09:05:25.318Z,59
2016-08-16T09:06:26.135Z,58.83
2016-08-16T09:07:26.075Z,59.7
2016-08-16T09:08:26.145Z,59.51
2016-08-16T09:09:26.133Z,59.89
2016-08-16T09:10:25.441Z,61.05
2016-08-16T09:11:26.318Z,61.37
2016-08-16T09:12:26.209Z,60.89
2016-08-16T09:13:25.585Z,59.44
2016-08-16T09:14:26.272Z,58.12
2016-08-16T09:15:25.635Z,59.53
2016-08-16T09:16:25.603Z,58.86
2016-08-16T09:17:25.635Z,58.45
2016-08-16T09:18:25.665Z,59.31
2016-08-16T09:19:26.405Z,58.95
2016-08-16T09:20:25.772Z,59.34
2016-08-16T09:21:26.451Z,59.22
2016-08-16T09:22:26.494Z,59.99
2016-08-16T09:23:26.503Z,60.18
2016-08-16T09:24:25.963Z,60.31
2016-08-16T09:25:25.844Z,60.79
2016-08-16T09:26:25.971Z,61.76
2016-08-16T09:27:25.903Z,61.86
2016-08-16T09:28:25.934Z,60.99
2016-08-16T09:29:25.962Z,60.21
2016-08-16T09:30:26.685Z,60.31
2016-08-16T09:31:26.098Z,60.41
2016-08-16T09:32:26.739Z,60.41
2016-08-16T09:33:26.091Z,59.6
2016-08-16T09:34:26.078Z,59.89
2016-08-16T09:35:26.844Z,61.15
2016-08-16T09:36:26.844Z,62.7
2016-08-16T09:37:26.883Z,62.12
2016-08-16T09:38:26.903Z,62.89
2016-08-16T09:39:26.223Z,62.57
2016-08-16T09:40:26.955Z,61.8
2016-08-16T09:41:26.365Z,61.44
2016-08-16T09:42:26.295Z,62.4
2016-08-16T09:43:27.029Z,63.28
2016-08-16T09:44:26.358Z,63.56
2016-08-16T09:45:27.085Z,62.12
2016-08-16T09:46:27.113Z,62.31
2016-08-16T09:47:26.424Z,61.54
2016-08-16T09:48:26.464Z,61.47
2016-08-16T09:49:26.479Z,61.3
2016-08-16T09:50:27.241Z,59.76
2016-08-16T09:51:27.233Z,57.95
2016-08-16T09:52:27.274Z,57.95
2016-08-16T09:53:26.597Z,57.08
2016-08-16T09:54:27.332Z,56.5
2016-08-16T09:55:26.649Z,56.7
2016-08-16T09:56:26.673Z,56.3
2016-08-16T09:57:27.408Z,56.3
2016-08-16T09:58:27.443Z,54.53
2016-08-16T09:59:27.472Z,53.96
2016-08-16T10:00:26.780Z,54.32
2016-08-16T10:01:27.526Z,53.64
2016-08-16T10:02:27.544Z,52.87
2016-08-16T10:03:27.574Z,53.47
2016-08-16T10:04:27.601Z,52.97
2016-08-16T10:05:26.923Z,54.68
2016-08-16T10:06:26.936Z,54.94
2016-08-16T10:07:27.682Z,57.14
2016-08-16T10:08:27.003Z,57.87
2016-08-16T10:09:27.732Z,57.52
2016-08-16T10:10:27.764Z,59.16
2016-08-16T10:11:27.786Z,61.54
2016-08-16T10:12:27.813Z,62.66
2016-08-16T10:13:27.843Z,63.12
2016-08-16T10:14:27.858Z,64.47
2016-08-16T10:15:27.893Z,64.47
2016-08-16T10:16:27.213Z,64.47
2016-08-16T10:17:27.951Z,64.76
2016-08-16T10:18:27.977Z,64.66
2016-08-16T10:19:27.999Z,65.78
2016-08-16T10:20:27.323Z,65.4
2016-08-16T10:21:28.143Z,63.89
2016-08-16T10:22:28.074Z,65.43
2016-08-16T10:23:28.098Z,65.5
2016-08-16T10:24:27.429Z,63.7
2016-08-16T10:25:28.172Z,65.81
2016-08-16T10:26:28.236Z,66.2
2016-08-16T10:27:28.223Z,65.14
2016-08-16T10:28:28.300Z,65.37
2016-08-16T10:29:28.261Z,64.5
2016-08-16T10:30:28.313Z,63.95
2016-08-16T10:31:27.601Z,63.57
2016-08-16T10:32:27.632Z,63.57
2016-08-16T10:33:28.373Z,61.93
2016-08-16T10:34:28.392Z,63.95
2016-08-16T10:35:27.713Z,63.24
2016-08-16T10:36:28.446Z,64.02
2016-08-16T10:37:27.920Z,61.74
2016-08-16T10:38:28.503Z,61.09
2016-08-16T10:39:27.834Z,60.99
2016-08-16T10:40:28.554Z,58.9
2016-08-16T10:41:27.872Z,58.03
2016-08-16T10:42:28.609Z,57.45
2016-08-16T10:43:28.641Z,56.39
2016-08-16T10:44:28.662Z,57.14
2016-08-16T10:45:28.682Z,57.78
2016-08-16T10:46:28.719Z,57.2
2016-08-16T10:47:28.034Z,57.78
2016-08-16T10:48:28.075Z,58.14
2016-08-16T10:49:28.804Z,58.33
2016-08-16T10:50:28.214Z,58.88
2016-08-16T10:51:28.140Z,58.3
2016-08-16T10:52:28.868Z,58.14
2016-08-16T10:53:28.917Z,57.59
2016-08-16T10:54:28.931Z,57.87
2016-08-16T10:55:28.960Z,56.91
2016-08-16T10:56:28.987Z,57.94
2016-08-16T10:57:28.323Z,57.37
2016-08-16T10:58:29.033Z,57.65
2016-08-16T10:59:29.069Z,59.27
2016-08-16T11:00:29.084Z,59.72
2016-08-16T11:01:29.132Z,59.14
2016-08-16T11:02:29.143Z,60
2016-08-16T11:03:28.467Z,60.97
2016-08-16T11:04:29.199Z,60.77
2016-08-16T11:05:29.209Z,61.65
2016-08-16T11:06:29.246Z,61.55
2016-08-16T11:07:29.269Z,60.23
2016-08-16T11:08:29.300Z,59.75
2016-08-16T11:09:29.327Z,59.2
2016-08-16T11:10:29.345Z,57.07
2016-08-16T11:11:29.371Z,57.39
2016-08-16T11:12:29.394Z,56.33
2016-08-16T11:13:28.711Z,55.56
2016-08-16T11:14:28.754Z,56.62
2016-08-16T11:15:29.475Z,57.17
2016-08-16T11:16:29.512Z,57.53
2016-08-16T11:17:29.529Z,56.98
2016-08-16T11:18:29.552Z,56.43
2016-08-16T11:19:29.582Z,57.49
2016-08-16T11:20:29.612Z,57.29
2016-08-16T11:21:28.932Z,57.32
2016-08-16T11:22:28.951Z,56.46
2016-08-16T11:23:29.732Z,57.35
2016-08-16T11:24:29.702Z,58.19
2016-08-16T11:25:29.758Z,58.39
2016-08-16T11:26:29.110Z,56.96
2016-08-16T11:27:29.792Z,56.39
2016-08-16T11:28:29.814Z,57.52
2016-08-16T11:29:29.132Z,58.19
2016-08-16T11:30:29.873Z,56.74
2016-08-16T11:31:29.902Z,58.17
2016-08-16T11:32:29.223Z,58.72
2016-08-16T11:33:29.944Z,59.45
2016-08-16T11:34:30.077Z,61.19
2016-08-16T11:35:30.021Z,61.87
2016-08-16T11:36:30.033Z,62.6
2016-08-16T11:37:29.355Z,63.47
2016-08-16T11:38:30.078Z,63.47
2016-08-16T11:39:30.105Z,63.67
2016-08-16T11:40:30.136Z,59.36
2016-08-16T11:41:30.232Z,59.75
2016-08-16T11:42:30.192Z,60.58
2016-08-16T11:43:30.203Z,58.3
2016-08-16T11:44:29.534Z,58.14
2016-08-16T11:45:30.253Z,57.68
2016-08-16T11:46:30.299Z,56.16
2016-08-16T11:47:30.321Z,54.75
2016-08-16T11:48:29.633Z,56.1
2016-08-16T11:49:29.661Z,56.1
2016-08-16T11:50:29.781Z,56.39
2016-08-16T11:51:30.427Z,56.56
2016-08-16T11:52:30.452Z,58.39
2016-08-16T11:53:30.469Z,59.52
2016-08-16T11:54:29.844Z,60.06
2016-08-16T11:55:30.512Z,60.16
2016-08-16T11:56:30.550Z,59.2
2016-08-16T11:57:30.583Z,59.94
2016-08-16T11:58:29.890Z,60.13
2016-08-16T11:59:29.921Z,60.03
2016-08-16T12:00:29.952Z,60.13
2016-08-16T12:01:30.672Z,60.71
2016-08-16T12:02:30.696Z,61.38
2016-08-16T12:03:30.036Z,62.25
2016-08-16T12:04:30.044Z,62.41
2016-08-16T12:05:30.089Z,62.35
2016-08-16T12:06:30.833Z,62.51
2016-08-16T12:07:30.833Z,62.6
2016-08-16T12:08:30.857Z,62.9
2016-08-16T12:09:30.889Z,63.15
2016-08-16T12:10:30.914Z,63.25
2016-08-16T12:11:30.232Z,63.92
2016-08-16T12:12:30.952Z,62.19
2016-08-16T12:13:30.361Z,61.65
2016-08-16T12:14:31.093Z,60.87
2016-08-16T12:15:30.330Z,61.25
2016-08-16T12:16:30.363Z,61.16
2016-08-16T12:17:31.083Z,62.03
2016-08-16T12:18:31.101Z,62.12
2016-08-16T12:19:30.432Z,61.25
2016-08-16T12:20:31.164Z,60.23
2016-08-16T12:21:30.476Z,59.17
2016-08-16T12:22:31.207Z,59.78
2016-08-16T12:23:31.234Z,57.1
2016-08-16T12:24:30.561Z,56.36
2016-08-16T12:25:31.289Z,55.81
2016-08-16T12:26:31.367Z,56.29
2016-08-16T12:27:31.405Z,55.42
2016-08-16T12:28:31.366Z,56.29
2016-08-16T12:29:30.724Z,56.87
2016-08-16T12:30:30.717Z,56.39
2016-08-16T12:31:30.733Z,56.58
2016-08-16T12:32:31.463Z,56.39
2016-08-16T12:33:31.491Z,57.06
2016-08-16T12:34:31.511Z,58.39
2016-08-16T12:35:30.842Z,58.87
2016-08-16T12:36:31.571Z,58.87
2016-08-16T12:37:30.881Z,58.77
2016-08-16T12:38:31.621Z,59.38
2016-08-16T12:39:31.641Z,59.19
2016-08-16T12:40:30.972Z,59.38
2016-08-16T12:41:30.983Z,59.58
2016-08-16T12:42:31.021Z,58.8
2016-08-16T12:43:31.757Z,58.8
2016-08-16T12:44:31.075Z,60.16
2016-08-16T12:45:31.793Z,58.51
2016-08-16T12:46:31.132Z,59.55
2016-08-16T12:47:31.852Z,60.93
2016-08-16T12:48:31.880Z,62.83
2016-08-16T12:49:31.920Z,63.7
2016-08-16T12:50:31.249Z,62.25
2016-08-16T12:51:31.262Z,61.58
2016-08-16T12:52:31.282Z,61.29
2016-08-16T12:53:32.013Z,61.03
2016-08-16T12:54:31.332Z,60.28